Disclaimer

Please do not use the information listed here in-flight or in-navigation, as they are not provided to us by the airports but are provided by volunteers, so they might be outdated.

Search


Regions


Airport information page

Radio informations:
Tower (TWR) - 118.1 MHz

Airport informations:
Latitude: 69° 58' 34.00" N
Longitude: 023° 22' 18.00" E
Elevation: 9 feet - 3 meters
Operating hours: NO OPERATING HOURS LISTED
Operating agency: Civil government, landing fees and diplomatic clearance may be required
Timezone: UTC+1(+2DT) - Last Sunday in March to last Sunday in October
Fuel: Jet A1, without icing nhibitor.

100/130 MIL Spec, low lead, aviation gasoline (BLUE)

Runway information:
11/29 - 7165 x 131 feet< - >2184 x 40 meters

Recent METARs:
ENAT 210250Z AUTO VRB04KT 9999 SCT040/// BKN100/// 04/M02 Q1027 RMK WIND 700FT 28018KT
ENAT 210250Z AUTO VRB04KT 9999 SCT040/// BKN100/// 04/M02 Q1027 RMK WIND 700FT 28018KT
ENAT 210350Z AUTO 28015KT 9999 NCD 04/M03 Q1026 RMK WIND 700FT 29017KT

Airport on the map: